createdAt,value
2018-06-05T00:00:50.432Z,22.31
2018-06-05T00:01:50.344Z,22.31
2018-06-05T00:02:50.361Z,22.31
2018-06-05T00:03:50.363Z,22.25
2018-06-05T00:04:50.343Z,22.25
2018-06-05T00:05:50.372Z,22.25
2018-06-05T00:06:50.334Z,22.25
2018-06-05T00:07:50.334Z,22.25
2018-06-05T00:08:50.340Z,22.19
2018-06-05T00:09:50.378Z,22.13
2018-06-05T00:10:50.340Z,22.13
2018-06-05T00:11:50.320Z,21.94
2018-06-05T00:12:50.357Z,21.81
2018-06-05T00:13:50.400Z,21.87
2018-06-05T00:14:50.366Z,21.87
2018-06-05T00:15:50.357Z,21.94
2018-06-05T00:16:50.335Z,21.87
2018-06-05T00:17:50.375Z,21.87
2018-06-05T00:18:50.389Z,21.94
2018-06-05T00:19:50.366Z,21.94
2018-06-05T00:20:50.361Z,21.94
2018-06-05T00:21:50.359Z,21.94
2018-06-05T00:22:50.352Z,21.94
2018-06-05T00:23:50.477Z,21.94
2018-06-05T00:24:50.338Z,22
2018-06-05T00:25:50.359Z,22
2018-06-05T00:26:50.648Z,21.94
2018-06-05T00:27:50.345Z,21.94
2018-06-05T00:28:50.369Z,21.87
2018-06-05T00:29:50.634Z,21.87
2018-06-05T00:30:50.349Z,21.75
2018-06-05T00:31:50.364Z,21.69
2018-06-05T00:32:50.325Z,21.75
2018-06-05T00:33:50.405Z,21.75
2018-06-05T00:34:50.349Z,21.75
2018-06-05T00:35:50.329Z,21.75
2018-06-05T00:36:50.357Z,21.69
2018-06-05T00:37:50.546Z,21.75
2018-06-05T00:38:50.468Z,21.75
2018-06-05T00:39:50.379Z,21.69
2018-06-05T00:40:50.370Z,21.69
2018-06-05T00:41:50.363Z,21.69
2018-06-05T00:42:50.346Z,21.69
2018-06-05T00:43:50.385Z,21.69
2018-06-05T00:44:50.351Z,21.62
2018-06-05T00:45:50.421Z,21.62
2018-06-05T00:46:50.593Z,21.69
2018-06-05T00:47:50.344Z,21.62
2018-06-05T00:48:50.354Z,21.69
2018-06-05T00:49:50.358Z,21.62
2018-06-05T00:50:50.325Z,21.62
2018-06-05T00:51:50.331Z,21.69
2018-06-05T00:52:50.543Z,21.69
2018-06-05T00:53:50.515Z,21.69
2018-06-05T00:54:50.324Z,21.69
2018-06-05T00:55:50.385Z,21.69
2018-06-05T00:56:50.328Z,21.69
2018-06-05T00:57:51.292Z,21.69
2018-06-05T00:58:50.318Z,21.62
2018-06-05T00:59:50.315Z,21.69
2018-06-05T01:00:50.359Z,21.62
2018-06-05T01:01:50.513Z,21.62
2018-06-05T01:02:50.362Z,21.62
2018-06-05T01:03:50.677Z,21.62
2018-06-05T01:04:50.367Z,21.62
2018-06-05T01:05:50.389Z,21.62
2018-06-05T01:06:50.343Z,21.56
2018-06-05T01:07:50.715Z,21.5
2018-06-05T01:08:51.003Z,21.44
2018-06-05T01:09:50.314Z,21.44
2018-06-05T01:10:50.407Z,21.5
2018-06-05T01:11:50.296Z,21.44
2018-06-05T01:12:50.329Z,21.44
2018-06-05T01:13:50.580Z,21.44
2018-06-05T01:14:50.324Z,21.44
2018-06-05T01:15:50.305Z,21.44
2018-06-05T01:16:50.355Z,21.44
2018-06-05T01:17:51.651Z,21.44
2018-06-05T01:18:50.319Z,21.44
2018-06-05T01:19:50.306Z,21.44
2018-06-05T01:20:50.346Z,21.44
2018-06-05T01:21:50.360Z,21.37
2018-06-05T01:22:50.424Z,21.37
2018-06-05T01:23:50.479Z,21.31
2018-06-05T01:24:50.330Z,21.25
2018-06-05T01:25:50.347Z,21.25
2018-06-05T01:26:50.331Z,21.31
2018-06-05T01:27:50.300Z,21.25
2018-06-05T01:28:50.312Z,21.31
2018-06-05T01:29:50.328Z,21.25
2018-06-05T01:30:50.364Z,21.25
2018-06-05T01:31:50.380Z,21.25
2018-06-05T01:32:50.345Z,21.25
2018-06-05T01:33:50.310Z,21.25
2018-06-05T01:34:50.306Z,21.25
2018-06-05T01:35:50.326Z,21.25
2018-06-05T01:36:50.314Z,21.19
2018-06-05T01:37:50.325Z,21.25
2018-06-05T01:38:50.362Z,21.19
2018-06-05T01:39:50.320Z,21.25
2018-06-05T01:40:50.329Z,21.19
2018-06-05T01:41:50.451Z,21.19
2018-06-05T01:42:50.335Z,21.25
2018-06-05T01:43:50.425Z,21.25
2018-06-05T01:44:50.320Z,21.25
2018-06-05T01:45:50.475Z,21.31
2018-06-05T01:46:50.323Z,21.31
2018-06-05T01:47:50.320Z,21.31
2018-06-05T01:48:50.347Z,21.31
2018-06-05T01:49:50.432Z,21.31
2018-06-05T01:50:50.344Z,21.31
2018-06-05T01:51:50.354Z,21.31
2018-06-05T01:52:50.351Z,21.31
2018-06-05T01:53:50.326Z,21.31
2018-06-05T01:54:50.317Z,21.31
2018-06-05T01:55:50.322Z,21.31
2018-06-05T01:56:50.345Z,21.31
2018-06-05T01:57:50.338Z,21.31
2018-06-05T01:58:50.379Z,21.31
2018-06-05T01:59:50.330Z,21.31
2018-06-05T02:00:50.374Z,21.31
2018-06-05T02:01:50.295Z,21.31
2018-06-05T02:02:50.284Z,21.31
2018-06-05T02:03:50.419Z,21.25
2018-06-05T02:04:50.346Z,21.31
2018-06-05T02:05:50.339Z,21.25
2018-06-05T02:06:50.380Z,21.25
2018-06-05T02:07:50.332Z,21.25
2018-06-05T02:08:50.330Z,21.19
2018-06-05T02:09:50.349Z,21.19
2018-06-05T02:10:50.404Z,21.19
2018-06-05T02:11:50.311Z,21.12
2018-06-05T02:12:50.323Z,21.12
2018-06-05T02:13:50.297Z,21.12
2018-06-05T02:14:50.298Z,21.06
2018-06-05T02:15:50.311Z,21.12
2018-06-05T02:16:50.348Z,21.12
2018-06-05T02:17:50.312Z,21.19
2018-06-05T02:18:50.310Z,21.12
2018-06-05T02:19:50.324Z,21.19
2018-06-05T02:20:50.297Z,21.12
2018-06-05T02:21:50.301Z,21.12
2018-06-05T02:22:50.348Z,21.12
2018-06-05T02:23:50.304Z,21.19
2018-06-05T02:24:50.312Z,21.12
2018-06-05T02:25:50.311Z,21.12
2018-06-05T02:26:50.325Z,21.12
2018-06-05T02:27:50.304Z,21.06
2018-06-05T02:28:50.308Z,21
2018-06-05T02:29:50.294Z,21.06
2018-06-05T02:30:50.336Z,21
2018-06-05T02:31:50.291Z,21
2018-06-05T02:32:50.332Z,21
2018-06-05T02:33:50.358Z,21
2018-06-05T02:34:50.328Z,21
2018-06-05T02:35:50.322Z,20.94
2018-06-05T02:36:50.421Z,21
2018-06-05T02:37:50.328Z,20.94
2018-06-05T02:38:50.478Z,20.88
2018-06-05T02:39:50.316Z,20.94
2018-06-05T02:40:50.320Z,20.88
2018-06-05T02:41:50.414Z,20.88
2018-06-05T02:42:50.365Z,20.88
2018-06-05T02:43:50.310Z,20.88
2018-06-05T02:44:50.302Z,20.88
2018-06-05T02:45:50.320Z,20.88
2018-06-05T02:46:50.318Z,20.81
2018-06-05T02:47:50.307Z,20.75
2018-06-05T02:48:50.447Z,20.75
2018-06-05T02:49:50.327Z,20.69
2018-06-05T02:50:50.350Z,20.69
2018-06-05T02:51:50.315Z,20.69
2018-06-05T02:52:50.730Z,20.69
2018-06-05T02:53:50.312Z,20.69
2018-06-05T02:54:50.335Z,20.69
2018-06-05T02:55:50.320Z,20.69
2018-06-05T02:56:50.315Z,20.62
2018-06-05T02:57:50.331Z,20.62
2018-06-05T02:58:50.355Z,20.69
2018-06-05T02:59:50.315Z,20.69
2018-06-05T03:00:50.368Z,20.69
2018-06-05T03:01:50.312Z,20.69
2018-06-05T03:02:50.328Z,20.69
2018-06-05T03:03:50.368Z,20.69
2018-06-05T03:04:50.307Z,20.69
2018-06-05T03:05:50.666Z,20.69
2018-06-05T03:06:50.305Z,20.69
2018-06-05T03:07:50.484Z,20.62
2018-06-05T03:08:50.312Z,20.69
2018-06-05T03:09:50.322Z,20.69
2018-06-05T03:10:50.405Z,20.62
2018-06-05T03:11:50.329Z,20.62
2018-06-05T03:12:50.333Z,20.62
2018-06-05T03:13:50.336Z,20.62
2018-06-05T03:14:50.311Z,20.62
2018-06-05T03:15:50.317Z,20.62
2018-06-05T03:16:50.435Z,20.62
2018-06-05T03:17:50.466Z,20.62
2018-06-05T03:18:50.300Z,20.56
2018-06-05T03:19:50.294Z,20.62
2018-06-05T03:20:50.307Z,20.62
2018-06-05T03:21:50.596Z,20.62
2018-06-05T03:22:50.304Z,20.62
2018-06-05T03:23:50.641Z,20.62
2018-06-05T03:24:50.325Z,20.62
2018-06-05T03:25:50.280Z,20.62
2018-06-05T03:26:50.305Z,20.62
2018-06-05T03:27:50.291Z,20.62
2018-06-05T03:28:50.311Z,20.62
2018-06-05T03:29:50.278Z,20.56
2018-06-05T03:30:50.328Z,20.56
2018-06-05T03:31:50.336Z,20.5
2018-06-05T03:32:50.365Z,20.5
2018-06-05T03:33:50.282Z,20.5
2018-06-05T03:34:50.302Z,20.5
2018-06-05T03:35:50.315Z,20.5
2018-06-05T03:36:50.308Z,20.5
2018-06-05T03:37:50.302Z,20.44
2018-06-05T03:38:50.294Z,20.44
2018-06-05T03:39:50.281Z,20.37
2018-06-05T03:40:50.656Z,20.37
2018-06-05T03:41:50.393Z,20.31
2018-06-05T03:42:50.283Z,20.31
2018-06-05T03:43:50.367Z,20.31
2018-06-05T03:44:50.298Z,20.31
2018-06-05T03:45:50.302Z,20.25
2018-06-05T03:46:50.348Z,20.31
2018-06-05T03:47:50.316Z,20.25
2018-06-05T03:48:50.291Z,20.25
2018-06-05T03:49:50.278Z,20.25
2018-06-05T03:50:50.265Z,20.25
2018-06-05T03:51:50.305Z,20.25
2018-06-05T03:52:50.312Z,20.25
2018-06-05T03:53:50.308Z,20.25
2018-06-05T03:54:50.344Z,20.25
2018-06-05T03:55:50.285Z,20.25
2018-06-05T03:56:50.286Z,20.25
2018-06-05T03:57:50.348Z,20.25
2018-06-05T03:58:50.305Z,20.19
2018-06-05T03:59:50.276Z,20.19
2018-06-05T04:00:50.315Z,20.19
2018-06-05T04:01:50.351Z,20.12
2018-06-05T04:02:50.309Z,20.06
2018-06-05T04:03:50.320Z,20.06
2018-06-05T04:04:50.281Z,20.06
2018-06-05T04:05:50.290Z,20.06
2018-06-05T04:06:50.332Z,20
2018-06-05T04:07:50.325Z,20.06
2018-06-05T04:08:50.342Z,20.06
2018-06-05T04:09:50.270Z,20.06
2018-06-05T04:10:50.301Z,19.94
2018-06-05T04:11:50.328Z,19.94
2018-06-05T04:12:50.315Z,19.94
2018-06-05T04:13:50.451Z,19.94
2018-06-05T04:14:50.270Z,19.94
2018-06-05T04:15:50.288Z,19.94
2018-06-05T04:16:50.322Z,20
2018-06-05T04:17:50.291Z,19.94
2018-06-05T04:18:50.500Z,20
2018-06-05T04:19:50.413Z,20
2018-06-05T04:20:50.362Z,19.94
2018-06-05T04:21:50.274Z,20
2018-06-05T04:22:50.292Z,20
2018-06-05T04:23:50.409Z,20
2018-06-05T04:24:50.287Z,20
2018-06-05T04:25:51.069Z,20.06
2018-06-05T04:26:50.465Z,20.06
2018-06-05T04:27:50.313Z,20.06
2018-06-05T04:28:50.287Z,20.06
2018-06-05T04:29:50.315Z,20.06
2018-06-05T04:30:50.275Z,20.06
2018-06-05T04:31:50.277Z,20.06
2018-06-05T04:32:50.262Z,20.06
2018-06-05T04:33:50.370Z,20.06
2018-06-05T04:34:50.404Z,20.06
2018-06-05T04:35:50.260Z,20.06
2018-06-05T04:36:50.461Z,20.06
2018-06-05T04:37:50.331Z,20.12
2018-06-05T04:38:50.286Z,20.12
2018-06-05T04:39:50.258Z,20.12
2018-06-05T04:40:50.288Z,20.12
2018-06-05T04:41:50.257Z,20.12
2018-06-05T04:42:50.652Z,20.19
2018-06-05T04:43:50.285Z,20.12
2018-06-05T04:44:50.319Z,20.12
2018-06-05T04:45:50.260Z,20.19
2018-06-05T04:46:50.250Z,20.12
2018-06-05T04:47:50.920Z,20.19
2018-06-05T04:48:50.265Z,20.12
2018-06-05T04:49:50.283Z,20.12
2018-06-05T04:50:50.254Z,20.12
2018-06-05T04:51:50.234Z,20.06
2018-06-05T04:52:50.270Z,20.06
2018-06-05T04:53:50.322Z,20.06
2018-06-05T04:54:50.315Z,20
2018-06-05T04:55:50.291Z,20
2018-06-05T04:56:50.265Z,20
2018-06-05T04:57:50.270Z,20
2018-06-05T04:58:50.266Z,20
2018-06-05T04:59:50.420Z,20
2018-06-05T05:00:50.244Z,20
2018-06-05T05:01:50.358Z,20
2018-06-05T05:02:50.243Z,20.06
2018-06-05T05:03:50.243Z,20.06
2018-06-05T05:04:50.257Z,20.06
2018-06-05T05:05:50.294Z,20.06
2018-06-05T05:06:50.328Z,19.94
2018-06-05T05:07:50.246Z,20
2018-06-05T05:08:50.354Z,20
2018-06-05T05:09:50.306Z,20
2018-06-05T05:10:50.305Z,20
2018-06-05T05:11:50.332Z,20.06
2018-06-05T05:12:50.328Z,20.06
2018-06-05T05:13:50.286Z,20.06
2018-06-05T05:14:50.239Z,20.06
2018-06-05T05:15:50.250Z,20.12
2018-06-05T05:16:50.325Z,20.12
2018-06-05T05:17:50.332Z,20.12
2018-06-05T05:18:50.276Z,20
2018-06-05T05:19:50.389Z,20.06
2018-06-05T05:20:50.356Z,20.06
2018-06-05T05:21:50.209Z,20.06
2018-06-05T05:22:50.367Z,20.06
2018-06-05T05:23:50.302Z,20.06
2018-06-05T05:24:50.287Z,20.12
2018-06-05T05:25:50.239Z,20.12
2018-06-05T05:26:50.234Z,20.12
2018-06-05T05:27:50.236Z,20.12
2018-06-05T05:28:50.255Z,20.12
2018-06-05T05:29:50.241Z,20.19
2018-06-05T05:30:50.598Z,20.19
2018-06-05T05:31:50.258Z,20.19
2018-06-05T05:32:50.237Z,20.25
2018-06-05T05:33:50.427Z,20.31
2018-06-05T05:34:50.437Z,20.31
2018-06-05T05:35:50.536Z,20.31
2018-06-05T05:36:50.288Z,20.31
2018-06-05T05:37:50.246Z,20.31
2018-06-05T05:38:50.296Z,20.37
2018-06-05T05:39:50.234Z,20.37
2018-06-05T05:40:50.240Z,20.37
2018-06-05T05:41:50.266Z,20.37
2018-06-05T05:42:50.265Z,20.37
2018-06-05T05:43:50.232Z,20.37
2018-06-05T05:44:50.288Z,20.37
2018-06-05T05:45:50.260Z,20.37
2018-06-05T05:46:50.221Z,20.31
2018-06-05T05:47:50.295Z,20.31
2018-06-05T05:48:50.267Z,20.31
2018-06-05T05:49:50.224Z,20.31
2018-06-05T05:50:50.237Z,20.31
2018-06-05T05:51:50.214Z,20.44
2018-06-05T05:52:50.277Z,20.37
2018-06-05T05:53:50.246Z,20.37
2018-06-05T05:54:50.722Z,20.37
2018-06-05T05:55:50.293Z,20.37
2018-06-05T05:56:50.254Z,20.44
2018-06-05T05:57:50.269Z,20.44
2018-06-05T05:58:50.260Z,20.44
2018-06-05T05:59:50.249Z,20.5
2018-06-05T06:00:50.257Z,20.5
2018-06-05T06:01:50.336Z,20.56
2018-06-05T06:02:50.333Z,20.56
2018-06-05T06:03:50.693Z,20.56
2018-06-05T06:04:50.248Z,20.56
2018-06-05T06:05:50.238Z,20.5
2018-06-05T06:06:50.293Z,20.5
2018-06-05T06:07:50.234Z,20.56
2018-06-05T06:08:50.214Z,20.56
2018-06-05T06:09:50.391Z,20.62
2018-06-05T06:10:50.588Z,20.62
2018-06-05T06:11:50.267Z,20.62
2018-06-05T06:12:50.274Z,20.62
2018-06-05T06:13:50.262Z,20.69
2018-06-05T06:14:50.244Z,20.75
2018-06-05T06:15:50.242Z,20.75
2018-06-05T06:16:50.275Z,20.75
2018-06-05T06:17:50.318Z,20.81
2018-06-05T06:18:50.210Z,20.81
2018-06-05T06:19:50.290Z,20.81
2018-06-05T06:20:50.228Z,20.88
2018-06-05T06:21:50.210Z,20.88
2018-06-05T06:22:50.226Z,20.94
2018-06-05T06:23:50.203Z,21
2018-06-05T06:24:50.229Z,21
2018-06-05T06:25:50.321Z,21.06
2018-06-05T06:26:50.226Z,21.06
2018-06-05T06:27:50.265Z,21.12
2018-06-05T06:28:50.254Z,21.19
2018-06-05T06:29:50.577Z,21.12
2018-06-05T06:30:50.224Z,21.19
2018-06-05T06:31:50.333Z,21.25
2018-06-05T06:32:50.214Z,21.19
2018-06-05T06:33:50.237Z,21.25
2018-06-05T06:34:50.218Z,21.25
2018-06-05T06:35:50.279Z,21.25
2018-06-05T06:36:50.208Z,21.25
2018-06-05T06:37:50.387Z,21.31
2018-06-05T06:38:50.246Z,21.31
2018-06-05T06:39:50.244Z,21.31
2018-06-05T06:40:50.214Z,21.37
2018-06-05T06:41:50.376Z,21.37
2018-06-05T06:42:50.227Z,21.37
2018-06-05T06:43:50.192Z,21.37
2018-06-05T06:44:50.337Z,21.44
2018-06-05T06:45:50.236Z,21.44
2018-06-05T06:46:50.570Z,21.5
2018-06-05T06:47:50.207Z,21.5
2018-06-05T06:48:50.958Z,21.56
2018-06-05T06:49:50.236Z,21.62
2018-06-05T06:50:50.247Z,21.62
2018-06-05T06:51:50.254Z,21.62
2018-06-05T06:52:50.264Z,21.69
2018-06-05T06:53:50.223Z,21.75
2018-06-05T06:54:50.497Z,21.75
2018-06-05T06:55:50.241Z,21.81
2018-06-05T06:56:50.238Z,21.81
2018-06-05T06:57:50.266Z,21.81
2018-06-05T06:58:50.186Z,21.87
2018-06-05T06:59:50.204Z,21.87
2018-06-05T07:00:50.228Z,21.94
2018-06-05T07:01:50.208Z,21.94
2018-06-05T07:02:50.203Z,22
2018-06-05T07:03:50.233Z,22.06
2018-06-05T07:04:50.202Z,22.06
2018-06-05T07:05:50.305Z,22.06
2018-06-05T07:06:50.214Z,22.13
2018-06-05T07:07:50.193Z,22.06
2018-06-05T07:08:50.257Z,22.13
2018-06-05T07:09:50.228Z,22.19
2018-06-05T07:10:50.199Z,22.19
2018-06-05T07:11:50.283Z,22.19
2018-06-05T07:12:50.246Z,22.25
2018-06-05T07:13:50.244Z,22.19
2018-06-05T07:14:50.202Z,22.25
2018-06-05T07:15:50.256Z,22.25
2018-06-05T07:16:50.201Z,22.31
2018-06-05T07:17:50.340Z,22.37
2018-06-05T07:18:50.254Z,22.44
2018-06-05T07:19:50.351Z,22.44
2018-06-05T07:20:50.220Z,22.5
2018-06-05T07:21:50.193Z,22.5
2018-06-05T07:22:50.233Z,22.5
2018-06-05T07:23:50.208Z,22.5
2018-06-05T07:24:50.225Z,22.56
2018-06-05T07:25:50.189Z,22.56
2018-06-05T07:26:50.213Z,22.5
2018-06-05T07:27:50.303Z,22.5
2018-06-05T07:28:50.215Z,22.56
2018-06-05T07:29:50.381Z,22.62
2018-06-05T07:30:50.199Z,22.56
2018-06-05T07:31:50.421Z,22.62
2018-06-05T07:32:50.206Z,22.69
2018-06-05T07:33:50.244Z,22.69
2018-06-05T07:34:50.197Z,22.69
2018-06-05T07:35:50.422Z,22.75
2018-06-05T07:36:50.205Z,22.75
2018-06-05T07:37:50.365Z,22.81
2018-06-05T07:38:50.340Z,22.81
2018-06-05T07:39:50.275Z,22.81
2018-06-05T07:40:50.224Z,22.87
2018-06-05T07:41:50.204Z,22.87
2018-06-05T07:42:50.212Z,22.94
2018-06-05T07:43:50.312Z,22.94
2018-06-05T07:44:50.204Z,23
2018-06-05T07:45:50.196Z,23
2018-06-05T07:46:50.278Z,23
2018-06-05T07:47:50.236Z,23.06
2018-06-05T07:48:50.193Z,23.06
2018-06-05T07:49:50.200Z,23.06
2018-06-05T07:50:50.188Z,23.12
2018-06-05T07:51:50.221Z,23.12
2018-06-05T07:52:50.211Z,23.12
2018-06-05T07:53:50.191Z,23.12
2018-06-05T07:54:50.243Z,23.12
2018-06-05T07:55:50.176Z,23.12
2018-06-05T07:56:50.209Z,23.12
2018-06-05T07:57:50.173Z,23.19
2018-06-05T07:58:50.180Z,23.25
2018-06-05T07:59:50.178Z,23.31
2018-06-05T08:00:50.207Z,23.38
2018-06-05T08:01:50.174Z,23.44
2018-06-05T08:02:50.179Z,23.44
2018-06-05T08:03:50.203Z,23.44
2018-06-05T08:04:50.223Z,23.5
2018-06-05T08:05:50.215Z,23.56
2018-06-05T08:06:50.205Z,23.5
2018-06-05T08:07:50.187Z,23.56
2018-06-05T08:08:50.179Z,23.56
2018-06-05T08:09:50.234Z,23.56
2018-06-05T08:10:50.177Z,23.56
2018-06-05T08:11:50.539Z,23.56
2018-06-05T08:12:50.193Z,23.56
2018-06-05T08:13:50.163Z,23.62
2018-06-05T08:14:50.213Z,23.69
2018-06-05T08:15:50.361Z,23.75
2018-06-05T08:16:50.205Z,23.75
2018-06-05T08:17:50.171Z,23.87
2018-06-05T08:18:50.203Z,24
2018-06-05T08:19:50.247Z,24
2018-06-05T08:20:50.198Z,24
2018-06-05T08:21:50.210Z,23.87
2018-06-05T08:22:50.187Z,23.81
2018-06-05T08:23:50.210Z,23.87
2018-06-05T08:24:50.210Z,24
2018-06-05T08:25:50.223Z,23.94
2018-06-05T08:26:50.251Z,23.94
2018-06-05T08:27:50.177Z,24
2018-06-05T08:28:50.203Z,24
2018-06-05T08:29:50.447Z,24
2018-06-05T08:30:50.199Z,24.06
2018-06-05T08:31:50.272Z,24.12
2018-06-05T08:32:50.221Z,24.19
2018-06-05T08:33:53.462Z,24.19
2018-06-05T08:34:52.746Z,24.19
2018-06-05T08:35:50.217Z,24.25
2018-06-05T08:36:50.222Z,24.25
2018-06-05T08:37:50.657Z,24.31
2018-06-05T08:38:50.180Z,24.37
2018-06-05T08:39:50.215Z,24.31
2018-06-05T08:40:50.166Z,24.31
2018-06-05T08:41:50.258Z,24.31
2018-06-05T08:42:50.247Z,24.31
2018-06-05T08:43:50.314Z,24.25
2018-06-05T08:44:50.324Z,24.31
2018-06-05T08:45:50.396Z,24.37
2018-06-05T08:46:50.302Z,24.44
2018-06-05T08:47:50.190Z,24.5
2018-06-05T08:48:50.230Z,24.56
2018-06-05T08:49:50.165Z,24.63
2018-06-05T08:50:50.178Z,24.63
2018-06-05T08:51:50.205Z,24.63
2018-06-05T08:52:50.186Z,24.63
2018-06-05T08:53:50.221Z,24.63
2018-06-05T08:54:50.187Z,24.69
2018-06-05T08:55:50.460Z,24.81
2018-06-05T08:56:50.172Z,24.81
2018-06-05T08:57:50.240Z,24.94
2018-06-05T08:58:50.192Z,24.87
2018-06-05T08:59:50.518Z,24.94
2018-06-05T09:00:50.198Z,25
2018-06-05T09:01:50.204Z,25
2018-06-05T09:03:00.615Z,25
2018-06-05T09:03:50.463Z,25
2018-06-05T09:04:50.199Z,25
2018-06-05T09:05:50.240Z,25
2018-06-05T09:06:50.252Z,25.06
2018-06-05T09:07:50.216Z,25.12
2018-06-05T09:08:50.189Z,25.19
2018-06-05T09:09:50.161Z,25.25
2018-06-05T09:10:50.510Z,25.25
2018-06-05T09:11:50.158Z,25.25
2018-06-05T09:12:50.747Z,25.25
2018-06-05T09:13:50.186Z,25.19
2018-06-05T09:14:50.193Z,25.12
2018-06-05T09:15:50.157Z,25.19
2018-06-05T09:16:50.173Z,25.19
2018-06-05T09:17:50.174Z,25.25
2018-06-05T09:18:50.213Z,25.31
2018-06-05T09:19:50.152Z,25.37
2018-06-05T09:20:50.169Z,25.44
2018-06-05T09:21:50.204Z,25.44
2018-06-05T09:22:50.181Z,25.56
2018-06-05T09:23:50.153Z,25.56
2018-06-05T09:24:50.168Z,25.56
2018-06-05T09:25:50.161Z,25.5
2018-06-05T09:26:50.688Z,25.56
2018-06-05T09:27:50.206Z,25.5
2018-06-05T09:28:50.213Z,25.56
2018-06-05T09:29:50.281Z,25.62
2018-06-05T09:30:50.159Z,25.69
2018-06-05T09:31:50.270Z,25.75
2018-06-05T09:32:50.190Z,25.81
2018-06-05T09:33:50.156Z,25.81
2018-06-05T09:34:50.176Z,25.94
2018-06-05T09:35:50.180Z,25.94
2018-06-05T09:36:50.185Z,25.81
2018-06-05T09:37:50.452Z,25.81
2018-06-05T09:38:50.179Z,25.81
2018-06-05T09:39:50.163Z,25.81
2018-06-05T09:40:50.138Z,25.88
2018-06-05T09:41:50.155Z,25.88
2018-06-05T09:42:50.343Z,25.94
2018-06-05T09:43:50.169Z,26
2018-06-05T09:44:50.189Z,25.94
2018-06-05T09:45:50.243Z,25.94
2018-06-05T09:46:50.653Z,25.94
2018-06-05T09:47:50.230Z,25.94
2018-06-05T09:48:50.179Z,25.94
2018-06-05T09:49:50.203Z,25.94
2018-06-05T09:50:50.198Z,26.12
2018-06-05T09:51:50.152Z,26.12
2018-06-05T09:52:50.161Z,26.19
2018-06-05T09:53:50.151Z,26.06
2018-06-05T09:54:50.278Z,26.06
2018-06-05T09:55:50.169Z,26.06
2018-06-05T09:56:50.161Z,26.06
2018-06-05T09:57:51.276Z,26
2018-06-05T09:58:50.230Z,26.06
2018-06-05T09:59:50.231Z,26.06
2018-06-05T10:00:50.225Z,26.12
2018-06-05T10:01:50.184Z,26.19
2018-06-05T10:02:50.146Z,26.25
2018-06-05T10:03:50.946Z,26.25
2018-06-05T10:04:50.263Z,26.31
2018-06-05T10:05:50.139Z,26.37
2018-06-05T10:06:50.209Z,26.44
2018-06-05T10:07:50.152Z,26.5
2018-06-05T10:08:50.183Z,26.56
2018-06-05T10:09:50.176Z,26.5
2018-06-05T10:10:50.223Z,26.56
2018-06-05T10:11:50.246Z,26.56
2018-06-05T10:12:50.153Z,26.62
2018-06-05T10:13:50.548Z,26.62
2018-06-05T10:14:50.241Z,26.75
2018-06-05T10:15:50.192Z,26.69
2018-06-05T10:16:50.136Z,26.69
2018-06-05T10:17:50.128Z,26.69
2018-06-05T10:18:50.149Z,26.81
2018-06-05T10:19:50.154Z,26.87
2018-06-05T10:20:50.161Z,26.81
2018-06-05T10:21:50.122Z,26.87
2018-06-05T10:22:50.121Z,26.81
2018-06-05T10:23:50.162Z,26.69
2018-06-05T10:24:50.178Z,26.62
2018-06-05T10:25:50.181Z,26.69
2018-06-05T10:26:50.172Z,26.69
2018-06-05T10:27:50.533Z,26.75
2018-06-05T10:28:50.162Z,26.75
2018-06-05T10:29:50.236Z,26.75
2018-06-05T10:30:50.164Z,26.81
2018-06-05T10:31:50.181Z,26.87
2018-06-05T10:32:50.189Z,26.87
2018-06-05T10:33:50.160Z,27
2018-06-05T10:34:50.649Z,27.06
2018-06-05T10:35:50.189Z,27.13
2018-06-05T10:36:50.131Z,27.19
2018-06-05T10:37:50.165Z,27.19
2018-06-05T10:38:50.129Z,27.25
2018-06-05T10:39:50.126Z,27.25
2018-06-05T10:40:50.155Z,27.25
2018-06-05T10:41:50.152Z,27.25
2018-06-05T10:42:50.153Z,27.31
2018-06-05T10:43:50.151Z,27.31
2018-06-05T10:44:50.155Z,27.37
2018-06-05T10:45:50.142Z,27.5
2018-06-05T10:46:50.170Z,27.44
2018-06-05T10:47:50.115Z,27.5
2018-06-05T10:48:50.815Z,27.5
2018-06-05T10:49:50.100Z,27.5
2018-06-05T10:50:50.242Z,27.5
2018-06-05T10:51:50.144Z,27.5
2018-06-05T10:52:50.152Z,27.5
2018-06-05T10:53:50.207Z,27.56
2018-06-05T10:54:50.157Z,27.56
2018-06-05T10:55:50.142Z,27.56
2018-06-05T10:56:50.129Z,27.62
2018-06-05T10:57:50.150Z,27.69
2018-06-05T10:58:50.189Z,27.62
2018-06-05T10:59:50.200Z,27.75
2018-06-05T11:00:50.126Z,27.81
2018-06-05T11:01:50.113Z,27.81
2018-06-05T11:02:50.139Z,27.94
2018-06-05T11:03:50.170Z,27.87
2018-06-05T11:04:50.117Z,27.87
2018-06-05T11:05:50.138Z,27.87
2018-06-05T11:06:50.180Z,27.81
2018-06-05T11:07:50.212Z,27.75
2018-06-05T11:08:50.158Z,27.75
2018-06-05T11:09:50.133Z,27.81
2018-06-05T11:10:50.132Z,27.81
2018-06-05T11:11:50.131Z,27.81
2018-06-05T11:12:50.976Z,27.94
2018-06-05T11:13:50.143Z,28.06
2018-06-05T11:14:50.127Z,28.12
2018-06-05T11:15:50.147Z,28.12
2018-06-05T11:16:50.121Z,28.06
2018-06-05T11:17:50.141Z,28.06
2018-06-05T11:18:50.211Z,28.06
2018-06-05T11:19:50.123Z,28
2018-06-05T11:20:50.167Z,28
2018-06-05T11:21:50.174Z,28.06
2018-06-05T11:22:50.157Z,28.06
2018-06-05T11:23:50.337Z,28.12
2018-06-05T11:24:50.339Z,28.25
2018-06-05T11:25:50.283Z,28.31
2018-06-05T11:26:50.310Z,28.38
2018-06-05T11:27:50.127Z,28.38
2018-06-05T11:28:50.190Z,28.38
2018-06-05T11:29:50.139Z,28.31
2018-06-05T11:30:50.333Z,28.25
2018-06-05T11:31:50.150Z,28.12
2018-06-05T11:32:50.125Z,28.06
2018-06-05T11:33:50.478Z,28
2018-06-05T11:34:50.159Z,28
2018-06-05T11:35:50.199Z,28
2018-06-05T11:36:50.512Z,27.87
2018-06-05T11:37:50.128Z,27.87
2018-06-05T11:38:50.144Z,28
2018-06-05T11:39:50.116Z,27.94
2018-06-05T11:40:50.182Z,28
2018-06-05T11:41:50.148Z,28
2018-06-05T11:42:50.125Z,28
2018-06-05T11:43:50.123Z,27.94
2018-06-05T11:44:50.115Z,28
2018-06-05T11:45:50.154Z,27.94
2018-06-05T11:46:50.442Z,28
2018-06-05T11:47:50.119Z,28
2018-06-05T11:48:50.114Z,28
2018-06-05T11:49:50.165Z,28.06
2018-06-05T11:50:50.112Z,28
2018-06-05T11:51:50.117Z,28
2018-06-05T11:52:50.092Z,28
2018-06-05T11:53:50.155Z,27.94
2018-06-05T11:54:50.125Z,28
2018-06-05T11:55:50.142Z,28.06
2018-06-05T11:56:50.226Z,28.19
2018-06-05T11:57:50.224Z,28.31
2018-06-05T11:58:50.266Z,28.44
2018-06-05T11:59:50.101Z,28.31
2018-06-05T12:00:50.684Z,28.31
2018-06-05T12:01:50.841Z,28.25
2018-06-05T12:02:50.090Z,28.31
2018-06-05T12:03:50.141Z,28.31
2018-06-05T12:04:50.126Z,28.31
2018-06-05T12:05:50.158Z,28.31
2018-06-05T12:06:50.137Z,28.31
2018-06-05T12:07:50.143Z,28.25
2018-06-05T12:08:50.133Z,28.31
2018-06-05T12:09:50.193Z,28.25
2018-06-05T12:10:50.125Z,28.19
2018-06-05T12:11:50.150Z,28.19
2018-06-05T12:12:50.135Z,28.25
2018-06-05T12:13:50.105Z,28.12
2018-06-05T12:14:50.170Z,28.12
2018-06-05T12:15:50.167Z,28.19
2018-06-05T12:16:50.142Z,28.19
2018-06-05T12:17:50.798Z,28.19
2018-06-05T12:18:50.121Z,28.19
2018-06-05T12:19:50.152Z,28.12
2018-06-05T12:20:50.161Z,28.19
2018-06-05T12:21:50.107Z,28.12
2018-06-05T12:22:50.153Z,28.06
2018-06-05T12:23:50.130Z,28
2018-06-05T12:24:50.182Z,28
2018-06-05T12:25:50.291Z,28
2018-06-05T12:26:50.112Z,28.06
2018-06-05T12:27:50.139Z,28.12
2018-06-05T12:28:50.231Z,28.12
2018-06-05T12:29:50.246Z,28.12
2018-06-05T12:30:50.305Z,28.19
2018-06-05T12:31:50.130Z,28.19
2018-06-05T12:32:50.321Z,28.19
2018-06-05T12:33:50.129Z,28.19
2018-06-05T12:34:50.186Z,28.19
2018-06-05T12:35:50.100Z,28.19
2018-06-05T12:36:50.259Z,28.19
2018-06-05T12:37:50.126Z,28.19
2018-06-05T12:38:50.242Z,28.25
2018-06-05T12:39:50.122Z,28.19
2018-06-05T12:40:50.109Z,28.19
2018-06-05T12:41:50.462Z,28.25
2018-06-05T12:42:50.104Z,28.25
2018-06-05T12:43:50.125Z,28.19
2018-06-05T12:44:50.124Z,28.25
2018-06-05T12:45:50.104Z,28.19
2018-06-05T12:46:50.113Z,28.19
2018-06-05T12:47:50.163Z,28.19
2018-06-05T12:48:50.126Z,28.19
2018-06-05T12:49:50.131Z,28.19
2018-06-05T12:50:50.125Z,28.25
2018-06-05T12:51:50.111Z,28.31
2018-06-05T12:52:50.095Z,28.38
2018-06-05T12:53:50.096Z,28.44
2018-06-05T12:54:50.098Z,28.5
2018-06-05T12:55:50.117Z,28.56
2018-06-05T12:56:50.123Z,28.69
2018-06-05T12:57:50.124Z,28.75
2018-06-05T12:58:50.106Z,28.81
2018-06-05T12:59:50.100Z,28.94
2018-06-05T13:00:50.111Z,28.94